Time,TemperatureF,DewpointF,PressureIn,WindDirection,WindDirectionDegrees,WindSpeedMPH,WindSpeedGustMPH,Humidity,HourlyPrecipIn,Conditions,Clouds,dailyrainin,SoftwareType,DateUTC
2013-05-03 00:03:00,66.7,67.0,29.91,ENE,69,0.0,3.0,100,0.03,,,0.00,weatherlink.com 1.10,2013-05-03 05:03:00,
2013-05-03 00:18:00,66.7,67.0,29.91,ENE,71,0.0,4.0,100,0.03,,,0.00,weatherlink.com 1.10,2013-05-03 05:18:00,
2013-05-03 00:33:00,66.7,67.0,29.91,ENE,69,4.0,5.0,100,0.01,,,0.00,weatherlink.com 1.10,2013-05-03 05:33:00,
2013-05-03 00:48:00,66.7,67.0,29.91,ENE,62,0.0,3.0,100,0.00,,,0.00,weatherlink.com 1.10,2013-05-03 05:48:00,
2013-05-03 01:03:00,66.6,66.0,29.90,ENE,74,0.0,4.0,99,0.02,,,0.02,weatherlink.com 1.10,2013-05-03 06:03:00,
2013-05-03 01:18:00,66.5,66.0,29.90,East,90,0.0,3.0,99,0.05,,,0.05,weatherlink.com 1.10,2013-05-03 06:18:00,
2013-05-03 01:33:00,66.4,66.0,29.89,East,79,0.0,2.0,99,0.06,,,0.06,weatherlink.com 1.10,2013-05-03 06:33:00,
2013-05-03 01:48:00,66.3,66.0,29.89,ENE,60,0.0,0.0,99,0.07,,,0.07,weatherlink.com 1.10,2013-05-03 06:48:00,
2013-05-03 02:03:00,66.2,66.0,29.88,NE,53,0.0,0.0,99,0.06,,,0.08,weatherlink.com 1.10,2013-05-03 07:03:00,
2013-05-03 02:18:00,66.0,66.0,29.88,NE,53,0.0,0.0,100,0.04,,,0.09,weatherlink.com 1.10,2013-05-03 07:18:00,
2013-05-03 02:33:00,65.8,66.0,29.88,NE,53,0.0,0.0,100,0.03,,,0.09,weatherlink.com 1.10,2013-05-03 07:33:00,
2013-05-03 02:48:00,65.8,66.0,29.88,NE,54,0.0,0.0,100,0.02,,,0.09,weatherlink.com 1.10,2013-05-03 07:48:00,
2013-05-03 03:03:00,65.8,66.0,29.87,ENE,58,0.0,0.0,100,0.01,,,0.09,weatherlink.com 1.10,2013-05-03 08:03:00,
2013-05-03 03:18:00,65.7,66.0,29.87,ENE,72,0.0,0.0,100,0.00,,,0.09,weatherlink.com 1.10,2013-05-03 08:18:00,
2013-05-03 03:33:00,65.6,66.0,29.87,NE,47,1.0,3.0,100,0.00,,,0.09,weatherlink.com 1.10,2013-05-03 08:33:00,
2013-05-03 03:48:00,65.5,66.0,29.87,ENE,67,0.0,1.0,100,0.00,,,0.09,weatherlink.com 1.10,2013-05-03 08:48:00,
2013-05-03 04:03:00,65.4,65.0,29.87,NE,52,0.0,0.0,100,0.00,,,0.09,weatherlink.com 1.10,2013-05-03 09:03:00,
2013-05-03 04:18:00,65.2,65.0,29.87,NE,53,0.0,0.0,100,0.00,,,0.09,weatherlink.com 1.10,2013-05-03 09:18:00,
2013-05-03 04:33:00,65.1,65.0,29.86,ENE,62,0.0,0.0,100,0.00,,,0.09,weatherlink.com 1.10,2013-05-03 09:33:00,
2013-05-03 04:48:00,65.0,65.0,29.86,ENE,57,0.0,0.0,100,0.00,,,0.09,weatherlink.com 1.10,2013-05-03 09:48:00,
2013-05-03 05:03:00,64.9,65.0,29.86,ENE,58,0.0,0.0,100,0.00,,,0.09,weatherlink.com 1.10,2013-05-03 10:03:00,
2013-05-03 05:10:00,64.9,64.9,29.86,ENE,68,0.0,0.0,100,0.00,,,0.09,Wunderground v.1.15,2013-05-03 10:10:00,
2013-05-03 05:15:00,64.9,64.9,29.86,NNE,27,0.0,0.0,100,0.00,,,0.09,Wunderground v.1.15,2013-05-03 10:15:00,
2013-05-03 05:20:00,64.9,64.9,29.86,NE,42,0.0,0.0,100,0.00,,,0.09,Wunderground v.1.15,2013-05-03 10:20:00,
2013-05-03 05:30:00,64.7,64.7,29.86,NE,46,0.0,0.0,100,0.00,,,0.09,Wunderground v.1.15,2013-05-03 10:30:00,
2013-05-03 05:49:00,64.6,65.0,29.87,NE,46,0.0,0.0,100,0.00,,,0.09,weatherlink.com 1.10,2013-05-03 10:49:00,
2013-05-03 06:04:00,64.7,65.0,29.87,ENE,57,0.0,0.0,100,0.00,,,0.09,weatherlink.com 1.10,2013-05-03 11:04:00,
2013-05-03 06:19:00,64.7,65.0,29.88,ENE,57,0.0,0.0,100,0.00,,,0.09,weatherlink.com 1.10,2013-05-03 11:19:00,
2013-05-03 06:34:00,64.8,65.0,29.88,NE,35,0.0,1.0,100,0.00,,,0.09,weatherlink.com 1.10,2013-05-03 11:34:00,
2013-05-03 06:49:00,64.9,65.0,29.88,ENE,63,0.0,1.0,100,0.00,,,0.09,weatherlink.com 1.10,2013-05-03 11:49:00,
2013-05-03 07:04:00,65.1,65.0,29.89,NE,49,0.0,0.0,100,0.00,,,0.09,weatherlink.com 1.10,2013-05-03 12:04:00,
2013-05-03 07:19:00,65.4,65.0,29.89,ENE,60,0.0,0.0,100,0.00,,,0.09,weatherlink.com 1.10,2013-05-03 12:19:00,
2013-05-03 07:34:00,65.7,66.0,29.89,NE,51,0.0,3.0,100,0.00,,,0.09,weatherlink.com 1.10,2013-05-03 12:34:00,
2013-05-03 07:40:00,65.9,65.9,29.89,ENE,74,1.0,1.0,100,0.00,,,0.09,Wunderground v.1.15,2013-05-03 12:40:00,
2013-05-03 07:45:00,66.2,66.2,29.89,ENE,70,1.0,2.0,100,0.00,,,0.09,Wunderground v.1.15,2013-05-03 12:45:00,
2013-05-03 07:55:00,66.6,66.3,29.89,East,83,1.0,4.0,99,0.00,,,0.09,Wunderground v.1.15,2013-05-03 12:55:00,
2013-05-03 08:00:00,66.7,66.4,29.89,East,82,1.0,1.0,99,0.00,,,0.09,Wunderground v.1.15,2013-05-03 13:00:00,
2013-05-03 08:05:00,66.7,66.1,29.89,ENE,73,1.0,1.0,98,0.00,,,0.09,Wunderground v.1.15,2013-05-03 13:05:00,
2013-05-03 08:18:00,67.4,67.0,29.89,ENE,65,1.0,4.0,98,0.00,,,0.09,weatherlink.com 1.10,2013-05-03 13:18:00,
2013-05-03 08:33:00,68.1,67.0,29.89,ENE,72,0.0,7.0,95,0.00,,,0.09,weatherlink.com 1.10,2013-05-03 13:33:00,
2013-05-03 08:48:00,69.6,67.0,29.89,East,90,5.0,9.0,92,0.00,,,0.09,weatherlink.com 1.10,2013-05-03 13:48:00,
2013-05-03 09:03:00,70.2,67.0,29.89,NNE,25,2.0,9.0,88,0.00,,,0.09,weatherlink.com 1.10,2013-05-03 14:03:00,
2013-05-03 09:18:00,70.6,68.0,29.89,ESE,103,4.0,7.0,90,0.00,,,0.09,weatherlink.com 1.10,2013-05-03 14:18:00,
2013-05-03 09:35:00,71.3,68.0,29.89,NE,38,4.0,9.0,88,0.00,,,0.09,weatherlink.com 1.10,2013-05-03 14:35:00,
2013-05-03 09:49:00,72.4,68.0,29.89,East,82,6.0,9.0,86,0.00,,,0.09,weatherlink.com 1.10,2013-05-03 14:49:00,
2013-05-03 10:04:00,73.3,68.0,29.89,ENE,72,7.0,8.0,84,0.00,,,0.09,weatherlink.com 1.10,2013-05-03 15:04:00,
2013-05-03 10:19:00,73.6,68.0,29.89,ENE,62,2.0,8.0,83,0.00,,,0.09,weatherlink.com 1.10,2013-05-03 15:19:00,
2013-05-03 10:34:00,74.6,68.0,29.89,ENE,68,3.0,9.0,80,0.00,,,0.09,weatherlink.com 1.10,2013-05-03 15:34:00,
2013-05-03 10:49:00,74.7,68.0,29.89,NE,41,4.0,9.0,79,0.00,,,0.09,weatherlink.com 1.10,2013-05-03 15:49:00,
2013-05-03 10:55:00,75.0,68.4,29.89,East,86,4.0,5.0,80,0.00,,,0.09,Wunderground v.1.15,2013-05-03 15:55:00,
2013-05-03 11:00:00,75.1,68.1,29.89,NE,45,4.0,7.0,79,0.00,,,0.09,Wunderground v.1.15,2013-05-03 16:00:00,
2013-05-03 11:05:00,74.5,67.2,29.89,ENE,62,4.0,7.0,78,0.00,,,0.09,Wunderground v.1.15,2013-05-03 16:05:00,
2013-05-03 11:15:00,74.8,68.2,29.88,ENE,68,3.0,4.0,80,0.00,,,0.09,Wunderground v.1.15,2013-05-03 16:15:00,
2013-05-03 11:20:00,74.9,67.9,29.88,SSE,160,4.0,4.0,79,0.00,,,0.09,Wunderground v.1.15,2013-05-03 16:20:00,
2013-05-03 11:25:00,74.8,67.5,29.89,NNE,25,4.0,4.0,78,0.00,,,0.09,Wunderground v.1.15,2013-05-03 16:25:00,
2013-05-03 11:34:00,74.0,68.0,29.88,East,79,0.0,8.0,81,0.00,,,0.09,weatherlink.com 1.10,2013-05-03 16:34:00,
2013-05-03 11:40:00,74.0,67.4,29.88,NE,42,3.0,4.0,80,0.00,,,0.09,Wunderground v.1.15,2013-05-03 16:40:00,
2013-05-03 11:45:00,73.6,67.0,29.88,NE,37,2.0,4.0,80,0.00,,,0.09,Wunderground v.1.15,2013-05-03 16:45:00,
2013-05-03 12:04:00,73.6,67.0,29.87,ESE,113,2.0,5.0,81,0.00,,,0.09,weatherlink.com 1.10,2013-05-03 17:04:00,
2013-05-03 12:19:00,74.4,68.0,29.86,East,83,3.0,5.0,81,0.00,,,0.09,weatherlink.com 1.10,2013-05-03 17:19:00,
2013-05-03 12:34:00,74.5,68.0,29.86,East,94,2.0,7.0,80,0.00,,,0.09,weatherlink.com 1.10,2013-05-03 17:34:00,
2013-05-03 12:49:00,76.1,69.0,29.85,NE,55,1.0,5.0,78,0.00,,,0.09,weatherlink.com 1.10,2013-05-03 17:49:00,
2013-05-03 13:04:00,76.4,68.0,29.85,East,79,5.0,6.0,76,0.00,,,0.09,weatherlink.com 1.10,2013-05-03 18:04:00,
2013-05-03 13:19:00,75.6,68.0,29.84,East,96,3.0,8.0,76,0.00,,,0.09,weatherlink.com 1.10,2013-05-03 18:19:00,
2013-05-03 13:34:00,75.5,68.0,29.84,SE,131,3.0,5.0,77,0.00,,,0.09,weatherlink.com 1.10,2013-05-03 18:34:00,
2013-05-03 13:40:00,75.4,67.7,29.84,ENE,73,2.0,10.0,77,0.00,,,0.09,Wunderground v.1.15,2013-05-03 18:40:00,
2013-05-03 13:45:00,75.2,67.9,29.84,ENE,65,2.0,10.0,78,0.00,,,0.09,Wunderground v.1.15,2013-05-03 18:45:00,
2013-05-03 13:50:00,74.7,67.0,29.84,East,81,5.0,8.0,77,0.00,,,0.09,weatherlink.com 1.10,2013-05-03 18:50:00,
2013-05-03 13:55:00,74.4,67.5,29.84,SE,137,4.0,10.0,79,0.00,,,0.09,Wunderground v.1.15,2013-05-03 18:55:00,
2013-05-03 14:05:00,74.6,67.0,29.84,NE,46,4.0,7.0,78,0.00,,,0.09,weatherlink.com 1.10,2013-05-03 19:05:00,
2013-05-03 14:10:00,74.5,67.6,29.83,East,80,3.0,5.0,79,0.00,,,0.09,Wunderground v.1.15,2013-05-03 19:10:00,
2013-05-03 14:15:00,74.9,67.9,29.83,East,84,3.0,5.0,79,0.00,,,0.09,Wunderground v.1.15,2013-05-03 19:15:00,
2013-05-03 14:20:00,75.9,68.2,29.82,NNE,26,4.0,6.0,77,0.00,,,0.09,Wunderground v.1.15,2013-05-03 19:20:00,
2013-05-03 14:25:00,76.4,68.3,29.82,ENE,70,4.0,6.0,76,0.00,,,0.09,Wunderground v.1.15,2013-05-03 19:25:00,
2013-05-03 14:30:00,76.6,68.1,29.82,North,5,4.0,5.0,75,0.00,,,0.09,Wunderground v.1.15,2013-05-03 19:30:00,
2013-05-03 14:36:00,76.5,68.0,29.82,NE,48,2.0,10.0,76,0.00,,,0.09,weatherlink.com 1.10,2013-05-03 19:36:00,
2013-05-03 14:45:00,76.6,67.7,29.82,ENE,63,4.0,5.0,74,0.00,,,0.09,Wunderground v.1.15,2013-05-03 19:45:00,
2013-05-03 14:50:00,76.1,67.2,29.82,ENE,72,2.0,2.0,74,0.00,,,0.09,Wunderground v.1.15,2013-05-03 19:50:00,
2013-05-03 14:55:00,75.5,66.6,29.82,NE,46,2.0,2.0,74,0.00,,,0.09,Wunderground v.1.15,2013-05-03 19:55:00,
2013-05-03 15:00:00,74.9,66.4,29.82,SSE,149,2.0,2.0,75,0.00,,,0.09,Wunderground v.1.15,2013-05-03 20:00:00,
2013-05-03 15:05:00,74.0,66.3,29.82,ENE,78,3.0,3.0,77,0.00,,,0.09,Wunderground v.1.15,2013-05-03 20:05:00,
2013-05-03 15:19:00,73.0,67.0,29.82,ESE,114,0.0,6.0,82,0.00,,,0.09,weatherlink.com 1.10,2013-05-03 20:19:00,
2013-05-03 15:25:00,72.9,67.1,29.81,ENE,66,1.0,2.0,82,0.00,,,0.09,Wunderground v.1.15,2013-05-03 20:25:00,
2013-05-03 15:30:00,72.6,67.1,29.81,ENE,70,2.0,2.0,83,0.00,,,0.09,Wunderground v.1.15,2013-05-03 20:30:00,